Time,TemperatureF,DewpointF,PressureIn,WindDirection,WindDirectionDegrees,WindSpeedMPH,WindSpeedGustMPH,Humidity,HourlyPrecipIn,Conditions,Clouds,dailyrainin,SoftwareType,DateUTC
2013-06-22 00:00:00,67.5,52.0,30.23,SSW,207,1.0,0.0,58,0.00,,,0.00,oem by Ross Wheeler,2013-06-22 04:00:00,
2013-06-22 00:05:00,67.5,52.0,30.23,SSW,209,1.0,0.0,58,0.00,,,0.00,oem by Ross Wheeler,2013-06-22 04:05:00,
2013-06-22 00:10:00,67.5,52.0,30.23,SSW,210,3.0,0.0,58,0.00,,,0.00,oem by Ross Wheeler,2013-06-22 04:10:00,
2013-06-22 00:15:00,67.3,52.0,30.23,SSW,213,1.0,0.0,58,0.00,,,0.00,oem by Ross Wheeler,2013-06-22 04:15:00,
2013-06-22 00:25:00,67.3,52.0,30.23,SSW,193,3.0,0.0,59,0.00,,,0.00,oem by Ross Wheeler,2013-06-22 04:25:00,
2013-06-22 00:31:00,67.1,52.0,30.23,SW,224,2.0,0.0,59,0.00,,,0.00,oem by Ross Wheeler,2013-06-22 04:31:00,
2013-06-22 00:35:00,67.0,52.0,30.23,WSW,241,4.0,0.0,59,0.00,,,0.00,oem by Ross Wheeler,2013-06-22 04:35:00,
2013-06-22 00:40:00,67.0,52.0,30.23,SSW,205,0.0,0.0,59,0.00,,,0.00,oem by Ross Wheeler,2013-06-22 04:40:00,
2013-06-22 00:45:00,66.8,52.0,30.23,SW,236,3.0,0.0,60,0.00,,,0.00,oem by Ross Wheeler,2013-06-22 04:45:00,
2013-06-22 00:55:00,66.6,53.0,30.22,WSW,241,1.0,0.0,62,0.00,,,0.00,oem by Ross Wheeler,2013-06-22 04:55:00,
2013-06-22 01:01:00,66.5,53.0,30.22,SW,220,1.0,0.0,63,0.00,,,0.00,oem by Ross Wheeler,2013-06-22 05:01:00,
2013-06-22 01:05:00,66.5,53.0,30.22,SSW,202,4.0,0.0,63,0.00,,,0.00,oem by Ross Wheeler,2013-06-22 05:05:00,
2013-06-22 01:15:00,66.1,53.0,30.22,SW,229,0.0,0.0,63,0.00,,,0.00,oem by Ross Wheeler,2013-06-22 05:15:00,
2013-06-22 01:25:00,66.0,53.0,30.23,SW,234,5.0,0.0,63,0.00,,,0.00,oem by Ross Wheeler,2013-06-22 05:25:00,
2013-06-22 01:30:00,65.8,53.0,30.23,SSW,213,3.0,0.0,63,0.00,,,0.00,oem by Ross Wheeler,2013-06-22 05:30:00,
2013-06-22 01:40:00,65.6,53.0,30.22,SSW,213,0.0,0.0,64,0.00,,,0.00,oem by Ross Wheeler,2013-06-22 05:40:00,
2013-06-22 01:45:00,65.5,53.0,30.22,SSW,213,0.0,0.0,65,0.00,,,0.00,oem by Ross Wheeler,2013-06-22 05:45:00,
2013-06-22 01:55:00,65.3,53.0,30.22,SW,217,0.0,0.0,65,0.00,,,0.00,oem by Ross Wheeler,2013-06-22 05:55:00,
2013-06-22 02:00:00,65.2,53.0,30.22,SW,217,0.0,0.0,66,0.00,,,0.00,oem by Ross Wheeler,2013-06-22 06:00:00,
2013-06-22 02:10:00,64.5,54.0,30.21,SW,217,0.0,0.0,68,0.00,,,0.00,oem by Ross Wheeler,2013-06-22 06:10:00,
2013-06-22 02:20:00,63.9,52.0,30.21,SW,217,0.0,0.0,65,0.00,,,0.00,oem by Ross Wheeler,2013-06-22 06:20:00,
2013-06-22 02:25:00,63.7,52.0,30.21,SW,217,0.0,0.0,65,0.00,,,0.00,oem by Ross Wheeler,2013-06-22 06:25:00,
2013-06-22 02:30:00,63.7,52.0,30.21,SW,217,0.0,0.0,67,0.00,,,0.00,oem by Ross Wheeler,2013-06-22 06:30:00,
2013-06-22 02:40:00,63.5,54.0,30.21,SW,217,0.0,0.0,71,0.00,,,0.00,oem by Ross Wheeler,2013-06-22 06:40:00,
2013-06-22 02:45:00,63.4,51.0,30.21,SSW,210,0.0,0.0,65,0.00,,,0.00,oem by Ross Wheeler,2013-06-22 06:45:00,
2013-06-22 02:55:00,63.4,50.0,30.22,SSW,209,0.0,0.0,62,0.00,,,0.00,oem by Ross Wheeler,2013-06-22 06:55:00,
2013-06-22 03:00:00,63.4,50.0,30.22,SSW,210,2.0,0.0,61,0.00,,,0.00,oem by Ross Wheeler,2013-06-22 07:00:00,
2013-06-22 03:10:00,63.5,50.0,30.22,SSW,210,0.0,0.0,62,0.00,,,0.00,oem by Ross Wheeler,2013-06-22 07:10:00,
2013-06-22 03:15:00,63.5,50.0,30.22,SSW,212,0.0,0.0,62,0.00,,,0.00,oem by Ross Wheeler,2013-06-22 07:15:00,
2013-06-22 03:25:00,63.5,53.0,30.22,SSW,212,0.0,0.0,69,0.00,,,0.00,oem by Ross Wheeler,2013-06-22 07:25:00,
2013-06-22 03:30:00,63.5,53.0,30.22,SSW,212,0.0,0.0,68,0.00,,,0.00,oem by Ross Wheeler,2013-06-22 07:30:00,
2013-06-22 03:40:00,63.2,54.0,30.22,SSW,212,0.0,0.0,71,0.00,,,0.00,oem by Ross Wheeler,2013-06-22 07:40:00,
2013-06-22 03:45:00,63.1,54.0,30.22,SSW,212,0.0,0.0,71,0.00,,,0.00,oem by Ross Wheeler,2013-06-22 07:45:00,
2013-06-22 03:55:00,62.4,54.0,30.22,SSW,212,0.0,0.0,73,0.00,,,0.00,oem by Ross Wheeler,2013-06-22 07:55:00,
2013-06-22 04:00:00,61.9,54.0,30.22,SSW,212,0.0,0.0,74,0.00,,,0.00,oem by Ross Wheeler,2013-06-22 08:00:00,
2013-06-22 04:10:00,61.0,53.0,30.21,SSW,212,0.0,0.0,76,0.00,,,0.00,oem by Ross Wheeler,2013-06-22 08:10:00,
2013-06-22 04:15:00,60.8,54.0,30.21,SSW,212,0.0,0.0,78,0.00,,,0.00,oem by Ross Wheeler,2013-06-22 08:15:00,
2013-06-22 04:25:00,60.4,54.0,30.22,SSW,212,0.0,0.0,79,0.00,,,0.00,oem by Ross Wheeler,2013-06-22 08:25:00,
2013-06-22 04:30:00,60.2,54.0,30.22,SSW,212,0.0,0.0,80,0.00,,,0.00,oem by Ross Wheeler,2013-06-22 08:30:00,
2013-06-22 04:40:00,59.9,54.0,30.21,SSW,212,0.0,0.0,80,0.00,,,0.00,oem by Ross Wheeler,2013-06-22 08:40:00,
2013-06-22 04:45:00,59.9,53.0,30.21,SSW,212,0.0,0.0,78,0.00,,,0.00,oem by Ross Wheeler,2013-06-22 08:45:00,
2013-06-22 04:55:00,59.7,53.0,30.21,SSW,212,0.0,0.0,79,0.00,,,0.00,oem by Ross Wheeler,2013-06-22 08:55:00,
2013-06-22 05:00:00,59.9,53.0,30.21,SSW,212,0.0,0.0,79,0.00,,,0.00,oem by Ross Wheeler,2013-06-22 09:00:00,
2013-06-22 05:10:00,59.9,53.0,30.21,SSW,212,0.0,0.0,79,0.00,,,0.00,oem by Ross Wheeler,2013-06-22 09:10:00,
2013-06-22 05:15:00,59.9,53.0,30.21,SSW,212,0.0,0.0,79,0.00,,,0.00,oem by Ross Wheeler,2013-06-22 09:15:00,
2013-06-22 05:25:00,60.1,54.0,30.22,SSW,212,0.0,0.0,81,0.00,,,0.00,oem by Ross Wheeler,2013-06-22 09:25:00,
2013-06-22 05:30:00,60.1,55.0,30.22,SSW,212,0.0,0.0,82,0.00,,,0.00,oem by Ross Wheeler,2013-06-22 09:30:00,
2013-06-22 05:40:00,60.2,55.0,30.23,SSW,212,0.0,0.0,84,0.00,,,0.00,oem by Ross Wheeler,2013-06-22 09:40:00,
2013-06-22 05:45:00,60.2,55.0,30.23,SSW,212,0.0,0.0,84,0.00,,,0.00,oem by Ross Wheeler,2013-06-22 09:45:00,
2013-06-22 05:55:00,60.2,56.0,30.23,SSW,212,0.0,0.0,85,0.00,,,0.00,oem by Ross Wheeler,2013-06-22 09:55:00,
2013-06-22 06:00:00,60.2,56.0,30.23,SSW,212,0.0,0.0,86,0.00,,,0.00,oem by Ross Wheeler,2013-06-22 10:00:00,
2013-06-22 06:10:00,60.1,56.0,30.23,SSW,212,0.0,0.0,87,0.00,,,0.00,oem by Ross Wheeler,2013-06-22 10:10:00,
2013-06-22 06:15:00,60.1,56.0,30.23,SSW,212,0.0,0.0,87,0.00,,,0.00,oem by Ross Wheeler,2013-06-22 10:15:00,
2013-06-22 06:25:00,60.1,57.0,30.23,SSW,212,0.0,0.0,88,0.00,,,0.00,oem by Ross Wheeler,2013-06-22 10:25:00,
2013-06-22 06:30:00,60.2,57.0,30.23,SSW,212,0.0,0.0,88,0.00,,,0.00,oem by Ross Wheeler,2013-06-22 10:30:00,
2013-06-22 06:40:00,60.4,57.0,30.22,SSW,212,0.0,0.0,89,0.00,,,0.00,oem by Ross Wheeler,2013-06-22 10:40:00,
2013-06-22 06:45:00,60.5,57.0,30.22,SSW,212,0.0,0.0,89,0.00,,,0.00,oem by Ross Wheeler,2013-06-22 10:45:00,
2013-06-22 06:55:00,60.8,58.0,30.22,SSW,212,0.0,0.0,89,0.00,,,0.00,oem by Ross Wheeler,2013-06-22 10:55:00,
2013-06-22 07:01:00,61.0,58.0,30.22,SSW,213,0.0,0.0,90,0.00,,,0.00,oem by Ross Wheeler,2013-06-22 11:01:00,
2013-06-22 07:10:00,61.5,58.0,30.22,SW,216,1.0,0.0,89,0.00,,,0.00,oem by Ross Wheeler,2013-06-22 11:10:00,
2013-06-22 07:15:00,61.6,58.0,30.22,SW,216,0.0,0.0,88,0.00,,,0.00,oem by Ross Wheeler,2013-06-22 11:15:00,
2013-06-22 07:25:00,62.3,59.0,30.21,SW,233,0.0,0.0,88,0.00,,,0.00,oem by Ross Wheeler,2013-06-22 11:25:00,
2013-06-22 07:30:00,62.4,59.0,30.21,SW,229,1.0,0.0,88,0.00,,,0.00,oem by Ross Wheeler,2013-06-22 11:30:00,
2013-06-22 07:40:00,63.1,59.0,30.21,SW,226,0.0,0.0,87,0.00,,,0.00,oem by Ross Wheeler,2013-06-22 11:40:00,
2013-06-22 07:45:00,63.2,59.0,30.21,SW,215,1.0,0.0,86,0.00,,,0.00,oem by Ross Wheeler,2013-06-22 11:45:00,
2013-06-22 07:55:00,63.7,59.0,30.22,SSW,212,0.0,0.0,85,0.00,,,0.00,oem by Ross Wheeler,2013-06-22 11:55:00,
2013-06-22 08:00:00,63.9,59.0,30.22,WSW,237,0.0,0.0,84,0.00,,,0.00,oem by Ross Wheeler,2013-06-22 12:00:00,
2013-06-22 08:10:00,64.2,59.0,30.22,WSW,239,0.0,0.0,83,0.00,,,0.00,oem by Ross Wheeler,2013-06-22 12:10:00,
2013-06-22 08:15:00,64.5,59.0,30.22,WSW,239,0.0,0.0,82,0.00,,,0.00,oem by Ross Wheeler,2013-06-22 12:15:00,
2013-06-22 08:25:00,65.2,59.0,30.22,SSW,212,0.0,0.0,81,0.00,,,0.00,oem by Ross Wheeler,2013-06-22 12:25:00,
2013-06-22 08:31:00,65.5,60.0,30.22,SW,220,1.0,0.0,81,0.00,,,0.00,oem by Ross Wheeler,2013-06-22 12:31:00,
2013-06-22 08:40:00,66.0,60.0,30.22,SSW,203,1.0,0.0,80,0.00,,,0.00,oem by Ross Wheeler,2013-06-22 12:40:00,
2013-06-22 08:45:00,66.3,59.0,30.22,SW,224,1.0,0.0,78,0.00,,,0.00,oem by Ross Wheeler,2013-06-22 12:45:00,
2013-06-22 08:55:00,67.0,59.0,30.22,SW,217,1.0,0.0,76,0.00,,,0.00,oem by Ross Wheeler,2013-06-22 12:55:00,
2013-06-22 09:01:00,67.3,60.0,30.22,SW,223,1.0,0.0,76,0.00,,,0.00,oem by Ross Wheeler,2013-06-22 13:01:00,
2013-06-22 09:10:00,68.0,59.0,30.22,SW,215,2.0,0.0,74,0.00,,,0.00,oem by Ross Wheeler,2013-06-22 13:10:00,
2013-06-22 09:15:00,68.3,59.0,30.22,West,271,0.0,0.0,73,0.00,,,0.00,oem by Ross Wheeler,2013-06-22 13:15:00,
2013-06-22 09:25:00,69.0,60.0,30.22,SW,224,6.0,0.0,72,0.00,,,0.00,oem by Ross Wheeler,2013-06-22 13:25:00,
2013-06-22 09:30:00,69.3,60.0,30.22,SW,223,2.0,0.0,72,0.00,,,0.00,oem by Ross Wheeler,2013-06-22 13:30:00,
2013-06-22 09:40:00,69.8,60.0,30.22,SW,234,0.0,0.0,72,0.00,,,0.00,oem by Ross Wheeler,2013-06-22 13:40:00,
2013-06-22 09:45:00,70.1,61.0,30.22,South,178,2.0,0.0,72,0.00,,,0.00,oem by Ross Wheeler,2013-06-22 13:45:00,
2013-06-22 09:55:00,70.7,61.0,30.22,SSW,196,2.0,0.0,71,0.00,,,0.00,oem by Ross Wheeler,2013-06-22 13:55:00,
2013-06-22 10:00:00,71.0,61.0,30.21,SSW,203,3.0,0.0,70,0.00,,,0.00,oem by Ross Wheeler,2013-06-22 14:00:00,
2013-06-22 10:10:00,71.5,62.0,30.21,SW,216,0.0,0.0,71,0.00,,,0.00,oem by Ross Wheeler,2013-06-22 14:10:00,
2013-06-22 10:15:00,71.9,62.0,30.22,SW,217,0.0,0.0,70,0.00,,,0.00,oem by Ross Wheeler,2013-06-22 14:15:00,
2013-06-22 10:25:00,72.4,62.0,30.22,SW,234,1.0,0.0,70,0.00,,,0.00,oem by Ross Wheeler,2013-06-22 14:25:00,
2013-06-22 10:30:00,72.7,62.0,30.22,SSW,210,0.0,0.0,69,0.00,,,0.00,oem by Ross Wheeler,2013-06-22 14:30:00,
2013-06-22 10:40:00,73.2,62.0,30.22,South,185,1.0,0.0,69,0.00,,,0.00,oem by Ross Wheeler,2013-06-22 14:40:00,
2013-06-22 10:45:00,73.6,63.0,30.21,SSW,205,2.0,0.0,69,0.00,,,0.00,oem by Ross Wheeler,2013-06-22 14:45:00,
2013-06-22 10:55:00,74.1,64.0,30.21,SW,219,2.0,0.0,70,0.00,,,0.00,oem by Ross Wheeler,2013-06-22 14:55:00,
2013-06-22 11:00:00,74.5,63.0,30.22,SSW,213,5.0,0.0,68,0.00,,,0.00,oem by Ross Wheeler,2013-06-22 15:00:00,
2013-06-22 11:10:00,75.2,63.0,30.22,South,188,0.0,0.0,66,0.00,,,0.00,oem by Ross Wheeler,2013-06-22 15:10:00,
2013-06-22 11:16:00,75.5,63.0,30.22,SSW,209,1.0,0.0,65,0.00,,,0.00,oem by Ross Wheeler,2013-06-22 15:16:00,
2013-06-22 11:25:00,76.2,63.0,30.22,SE,124,0.0,0.0,64,0.00,,,0.00,oem by Ross Wheeler,2013-06-22 15:25:00,
2013-06-22 11:30:00,76.8,63.0,30.21,SSW,199,1.0,0.0,62,0.00,,,0.00,oem by Ross Wheeler,2013-06-22 15:30:00,
2013-06-22 11:40:00,78.0,63.0,30.21,South,182,0.0,0.0,60,0.00,,,0.00,oem by Ross Wheeler,2013-06-22 15:40:00,
2013-06-22 11:45:00,78.6,63.0,30.22,SSW,207,0.0,0.0,60,0.00,,,0.00,oem by Ross Wheeler,2013-06-22 15:45:00,
2013-06-22 11:55:00,79.9,65.0,30.22,South,178,0.0,0.0,60,0.00,,,0.00,oem by Ross Wheeler,2013-06-22 15:55:00,
2013-06-22 12:00:00,80.4,64.0,30.22,SE,137,1.0,0.0,57,0.00,,,0.00,oem by Ross Wheeler,2013-06-22 16:00:00,
2013-06-22 12:10:00,81.0,66.0,30.22,South,182,1.0,0.0,61,0.00,,,0.00,oem by Ross Wheeler,2013-06-22 16:10:00,
2013-06-22 12:15:00,81.0,63.0,30.22,SSW,206,0.0,0.0,54,0.00,,,0.00,oem by Ross Wheeler,2013-06-22 16:15:00,
2013-06-22 12:25:00,81.4,63.0,30.22,SSW,202,0.0,0.0,54,0.00,,,0.00,oem by Ross Wheeler,2013-06-22 16:25:00,
2013-06-22 12:31:00,81.6,63.0,30.22,South,181,1.0,0.0,54,0.00,,,0.00,oem by Ross Wheeler,2013-06-22 16:31:00,
2013-06-22 12:40:00,82.0,63.0,30.22,SSW,206,0.0,0.0,52,0.00,,,0.00,oem by Ross Wheeler,2013-06-22 16:40:00,
2013-06-22 12:45:00,82.2,61.0,30.22,SSW,195,1.0,0.0,48,0.00,,,0.00,oem by Ross Wheeler,2013-06-22 16:45:00,
2013-06-22 12:55:00,82.6,61.0,30.22,SE,145,1.0,0.0,49,0.00,,,0.00,oem by Ross Wheeler,2013-06-22 16:55:00,
2013-06-22 13:01:00,82.6,63.0,30.21,SW,229,0.0,0.0,52,0.00,,,0.00,oem by Ross Wheeler,2013-06-22 17:01:00,
2013-06-22 13:10:00,82.4,61.0,30.21,NE,41,0.0,0.0,48,0.00,,,0.00,oem by Ross Wheeler,2013-06-22 17:10:00,
2013-06-22 13:16:00,82.8,62.0,30.20,WSW,240,1.0,0.0,49,0.00,,,0.00,oem by Ross Wheeler,2013-06-22 17:16:00,
2013-06-22 13:25:00,83.5,62.0,30.20,SSW,212,0.0,0.0,48,0.00,,,0.00,oem by Ross Wheeler,2013-06-22 17:25:00,
2013-06-22 13:31:00,83.7,60.0,30.19,SSW,200,1.0,0.0,44,0.00,,,0.00,oem by Ross Wheeler,2013-06-22 17:31:00,
2013-06-22 13:40:00,84.3,62.0,30.19,SSW,205,7.0,0.0,47,0.00,,,0.00,oem by Ross Wheeler,2013-06-22 17:40:00,
2013-06-22 13:45:00,83.9,60.0,30.18,South,185,0.0,0.0,44,0.00,,,0.00,oem by Ross Wheeler,2013-06-22 17:45:00,
2013-06-22 13:55:00,83.9,61.0,30.18,SSE,168,6.0,0.0,46,0.00,,,0.00,oem by Ross Wheeler,2013-06-22 17:55:00,
2013-06-22 14:00:00,84.1,61.0,30.17,SSW,206,3.0,0.0,45,0.00,,,0.00,oem by Ross Wheeler,2013-06-22 18:00:00,
2013-06-22 14:10:00,83.7,62.0,30.17,SSE,154,2.0,0.0,48,0.00,,,0.00,oem by Ross Wheeler,2013-06-22 18:10:00,
2013-06-22 14:15:00,83.9,62.0,30.17,SSE,162,0.0,0.0,48,0.00,,,0.00,oem by Ross Wheeler,2013-06-22 18:15:00,
2013-06-22 14:25:00,83.7,62.0,30.17,South,191,2.0,0.0,48,0.00,,,0.00,oem by Ross Wheeler,2013-06-22 18:25:00,
2013-06-22 14:30:00,83.5,65.0,30.17,SE,127,0.0,0.0,53,0.00,,,0.00,oem by Ross Wheeler,2013-06-22 18:30:00,
2013-06-22 14:40:00,82.8,65.0,30.17,ESE,123,2.0,0.0,55,0.00,,,0.00,oem by Ross Wheeler,2013-06-22 18:40:00,
2013-06-22 14:46:00,82.0,66.0,30.17,ESE,120,1.0,0.0,58,0.00,,,0.00,oem by Ross Wheeler,2013-06-22 18:46:00,
2013-06-22 14:55:00,81.2,66.0,30.17,ESE,114,2.0,0.0,60,0.00,,,0.00,oem by Ross Wheeler,2013-06-22 18:55:00,
2013-06-22 15:01:00,81.2,65.0,30.17,ESE,114,1.0,0.0,59,0.00,,,0.00,oem by Ross Wheeler,2013-06-22 19:01:00,
2013-06-22 15:10:00,81.0,67.0,30.17,SE,126,0.0,0.0,62,0.00,,,0.00,oem by Ross Wheeler,2013-06-22 19:10:00,
2013-06-22 15:15:00,81.0,65.0,30.17,SE,143,1.0,0.0,59,0.00,,,0.00,oem by Ross Wheeler,2013-06-22 19:15:00,
2013-06-22 15:25:00,80.8,66.0,30.17,ESE,110,1.0,0.0,61,0.00,,,0.00,oem by Ross Wheeler,2013-06-22 19:25:00,
2013-06-22 15:30:00,80.8,66.0,30.16,ESE,110,1.0,0.0,62,0.00,,,0.00,oem by Ross Wheeler,2013-06-22 19:30:00,
2013-06-22 15:40:00,80.4,66.0,30.16,ESE,109,3.0,0.0,62,0.00,,,0.00,oem by Ross Wheeler,2013-06-22 19:40:00,
2013-06-22 15:45:00,79.9,66.0,30.15,ESE,109,1.0,0.0,62,0.00,,,0.00,oem by Ross Wheeler,2013-06-22 19:45:00,
2013-06-22 15:55:00,79.0,65.0,30.15,ESE,106,1.0,0.0,62,0.00,,,0.00,oem by Ross Wheeler,2013-06-22 19:55:00,
2013-06-22 16:00:00,79.0,64.0,30.14,ESE,110,2.0,0.0,61,0.00,,,0.00,oem by Ross Wheeler,2013-06-22 20:00:00,
2013-06-22 16:10:00,79.0,65.0,30.14,ESE,110,2.0,0.0,62,0.00,,,0.00,oem by Ross Wheeler,2013-06-22 20:10:00,
2013-06-22 16:15:00,79.0,65.0,30.14,ESE,110,1.0,0.0,63,0.00,,,0.00,oem by Ross Wheeler,2013-06-22 20:15:00,
2013-06-22 16:25:00,78.4,65.0,30.14,ESE,110,1.0,0.0,63,0.00,,,0.00,oem by Ross Wheeler,2013-06-22 20:25:00,
2013-06-22 16:30:00,78.2,65.0,30.13,ESE,110,2.0,0.0,63,0.00,,,0.00,oem by Ross Wheeler,2013-06-22 20:30:00,
2013-06-22 16:40:00,78.6,66.0,30.13,ESE,111,2.0,0.0,65,0.00,,,0.00,oem by Ross Wheeler,2013-06-22 20:40:00,
2013-06-22 16:50:00,79.0,65.0,30.12,ESE,107,1.0,0.0,63,0.00,,,0.00,oem by Ross Wheeler,2013-06-22 20:50:00,
2013-06-22 16:55:00,78.8,66.0,30.12,ESE,116,2.0,0.0,64,0.00,,,0.00,oem by Ross Wheeler,2013-06-22 20:55:00,
2013-06-22 17:00:00,78.8,66.0,30.11,ESE,116,1.0,0.0,65,0.00,,,0.00,oem by Ross Wheeler,2013-06-22 21:00:00,
2013-06-22 17:10:00,78.6,66.0,30.11,ESE,123,1.0,0.0,65,0.00,,,0.00,oem by Ross Wheeler,2013-06-22 21:10:00,
2013-06-22 17:15:00,78.6,65.0,30.11,ESE,123,1.0,0.0,64,0.00,,,0.00,oem by Ross Wheeler,2013-06-22 21:15:00,
2013-06-22 17:25:00,78.4,65.0,30.11,ESE,120,2.0,0.0,63,0.00,,,0.00,oem by Ross Wheeler,2013-06-22 21:25:00,
2013-06-22 17:30:00,78.2,65.0,30.11,ESE,120,1.0,0.0,63,0.00,,,0.00,oem by Ross Wheeler,2013-06-22 21:30:00,
2013-06-22 17:40:00,78.0,65.0,30.11,ESE,121,0.0,0.0,64,0.00,,,0.00,oem by Ross Wheeler,2013-06-22 21:40:00,
2013-06-22 17:45:00,78.0,65.0,30.11,SE,124,1.0,0.0,64,0.00,,,0.00,oem by Ross Wheeler,2013-06-22 21:45:00,
2013-06-22 17:55:00,77.8,64.0,30.11,SE,131,1.0,0.0,63,0.00,,,0.00,oem by Ross Wheeler,2013-06-22 21:55:00,
2013-06-22 18:01:00,77.7,65.0,30.11,SE,131,0.0,0.0,65,0.00,,,0.00,oem by Ross Wheeler,2013-06-22 22:01:00,
2013-06-22 18:10:00,77.3,64.0,30.11,SE,128,1.0,0.0,64,0.00,,,0.00,oem by Ross Wheeler,2013-06-22 22:10:00,
2013-06-22 18:15:00,77.3,64.0,30.10,SE,127,1.0,0.0,64,0.00,,,0.00,oem by Ross Wheeler,2013-06-22 22:15:00,
2013-06-22 18:25:00,77.1,64.0,30.10,SE,124,1.0,0.0,64,0.00,,,0.00,oem by Ross Wheeler,2013-06-22 22:25:00,
2013-06-22 18:30:00,77.1,64.0,30.09,SE,131,1.0,0.0,65,0.00,,,0.00,oem by Ross Wheeler,2013-06-22 22:30:00,
2013-06-22 18:40:00,76.9,64.0,30.09,SE,128,0.0,0.0,65,0.00,,,0.00,oem by Ross Wheeler,2013-06-22 22:40:00,
2013-06-22 18:45:00,76.9,64.0,30.09,SE,141,1.0,0.0,64,0.00,,,0.00,oem by Ross Wheeler,2013-06-22 22:45:00,
2013-06-22 18:55:00,76.9,64.0,30.09,SE,133,1.0,0.0,65,0.00,,,0.00,oem by Ross Wheeler,2013-06-22 22:55:00,
2013-06-22 19:00:00,76.8,64.0,30.09,SE,133,1.0,0.0,65,0.00,,,0.00,oem by Ross Wheeler,2013-06-22 23:00:00,
2013-06-22 19:10:00,76.4,63.0,30.09,SE,133,0.0,0.0,64,0.00,,,0.00,oem by Ross Wheeler,2013-06-22 23:10:00,
2013-06-22 19:15:00,76.4,63.0,30.09,SE,133,1.0,0.0,64,0.00,,,0.00,oem by Ross Wheeler,2013-06-22 23:15:00,
2013-06-22 19:25:00,76.0,62.0,30.09,SE,133,1.0,0.0,63,0.00,,,0.00,oem by Ross Wheeler,2013-06-22 23:25:00,
2013-06-22 19:30:00,75.7,62.0,30.09,SE,133,0.0,0.0,63,0.00,,,0.00,oem by Ross Wheeler,2013-06-22 23:30:00,
2013-06-22 19:40:00,75.3,62.0,30.09,SE,133,1.0,0.0,63,0.00,,,0.00,oem by Ross Wheeler,2013-06-22 23:40:00,
2013-06-22 19:45:00,75.2,61.0,30.09,SE,133,1.0,0.0,62,0.00,,,0.00,oem by Ross Wheeler,2013-06-22 23:45:00,
2013-06-22 19:55:00,75.0,61.0,30.09,SE,133,0.0,0.0,63,0.00,,,0.00,oem by Ross Wheeler,2013-06-22 23:55:00,
2013-06-22 20:00:00,74.8,61.0,30.10,SE,133,0.0,0.0,62,0.00,,,0.00,oem by Ross Wheeler,2013-06-23 00:00:00,
2013-06-22 20:10:00,74.5,61.0,30.10,SE,133,0.0,0.0,62,0.00,,,0.00,oem by Ross Wheeler,2013-06-23 00:10:00,
2013-06-22 20:15:00,74.3,60.0,30.10,SE,133,0.0,0.0,61,0.00,,,0.00,oem by Ross Wheeler,2013-06-23 00:15:00,
2013-06-22 20:25:00,73.9,60.0,30.10,SE,133,0.0,0.0,62,0.00,,,0.00,oem by Ross Wheeler,2013-06-23 00:25:00,
2013-06-22 20:30:00,73.8,60.0,30.10,SE,134,0.0,0.0,62,0.00,,,0.00,oem by Ross Wheeler,2013-06-23 00:30:00,
2013-06-22 20:40:00,73.2,59.0,30.10,SE,134,0.0,0.0,62,0.00,,,0.00,oem by Ross Wheeler,2013-06-23 00:40:00,
2013-06-22 20:45:00,73.1,60.0,30.10,SE,133,0.0,0.0,63,0.00,,,0.00,oem by Ross Wheeler,2013-06-23 00:45:00,
2013-06-22 20:55:00,72.7,60.0,30.10,SE,133,0.0,0.0,64,0.00,,,0.00,oem by Ross Wheeler,2013-06-23 00:55:00,
2013-06-22 21:00:00,72.5,60.0,30.11,SE,134,0.0,0.0,65,0.00,,,0.00,oem by Ross Wheeler,2013-06-23 01:00:00,
2013-06-22 21:10:00,72.2,60.0,30.11,SE,133,0.0,0.0,65,0.00,,,0.00,oem by Ross Wheeler,2013-06-23 01:10:00,
2013-06-22 21:15:00,72.0,60.0,30.11,South,186,0.0,0.0,66,0.00,,,0.00,oem by Ross Wheeler,2013-06-23 01:15:00,
2013-06-22 21:25:00,71.7,60.0,30.11,SSE,164,0.0,0.0,66,0.00,,,0.00,oem by Ross Wheeler,2013-06-23 01:25:00,
2013-06-22 21:30:00,71.7,60.0,30.12,SSW,207,3.0,0.0,66,0.00,,,0.00,oem by Ross Wheeler,2013-06-23 01:30:00,
2013-06-22 21:40:00,71.5,60.0,30.12,SE,141,0.0,0.0,67,0.00,,,0.00,oem by Ross Wheeler,2013-06-23 01:40:00,
2013-06-22 21:45:00,71.3,60.0,30.12,SE,141,0.0,0.0,67,0.00,,,0.00,oem by Ross Wheeler,2013-06-23 01:45:00,
2013-06-22 21:55:00,71.2,60.0,30.12,SSE,158,0.0,0.0,67,0.00,,,0.00,oem by Ross Wheeler,2013-06-23 01:55:00,
2013-06-22 22:00:00,71.2,60.0,30.13,South,178,0.0,0.0,68,0.00,,,0.00,oem by Ross Wheeler,2013-06-23 02:00:00,
2013-06-22 22:10:00,70.8,60.0,30.13,South,169,1.0,0.0,68,0.00,,,0.00,oem by Ross Wheeler,2013-06-23 02:10:00,
2013-06-22 22:15:00,70.7,60.0,30.14,South,169,0.0,0.0,68,0.00,,,0.00,oem by Ross Wheeler,2013-06-23 02:15:00,
2013-06-22 22:25:00,70.5,59.0,30.14,South,169,0.0,0.0,68,0.00,,,0.00,oem by Ross Wheeler,2013-06-23 02:25:00,
2013-06-22 22:30:00,70.3,59.0,30.14,South,169,0.0,0.0,68,0.00,,,0.00,oem by Ross Wheeler,2013-06-23 02:30:00,
2013-06-22 22:40:00,70.3,59.0,30.14,SW,215,0.0,0.0,67,0.00,,,0.00,oem by Ross Wheeler,2013-06-23 02:40:00,
2013-06-22 22:45:00,70.3,59.0,30.14,SSW,203,0.0,0.0,67,0.00,,,0.00,oem by Ross Wheeler,2013-06-23 02:45:00,
2013-06-22 22:55:00,70.3,59.0,30.14,SSW,207,0.0,0.0,67,0.00,,,0.00,oem by Ross Wheeler,2013-06-23 02:55:00,
2013-06-22 23:00:00,70.1,59.0,30.14,South,189,2.0,0.0,67,0.00,,,0.00,oem by Ross Wheeler,2013-06-23 03:00:00,
2013-06-22 23:10:00,70.1,59.0,30.14,SW,222,0.0,0.0,68,0.00,,,0.00,oem by Ross Wheeler,2013-06-23 03:10:00,
2013-06-22 23:15:00,70.1,59.0,30.15,SW,222,0.0,0.0,67,0.00,,,0.00,oem by Ross Wheeler,2013-06-23 03:15:00,
2013-06-22 23:25:00,70.0,59.0,30.15,SW,222,0.0,0.0,69,0.00,,,0.00,oem by Ross Wheeler,2013-06-23 03:25:00,
2013-06-22 23:30:00,69.8,59.0,30.15,SW,219,0.0,0.0,69,0.00,,,0.00,oem by Ross Wheeler,2013-06-23 03:30:00,
2013-06-22 23:40:00,69.6,59.0,30.15,SW,219,0.0,0.0,69,0.00,,,0.00,oem by Ross Wheeler,2013-06-23 03:40:00,
2013-06-22 23:45:00,69.6,60.0,30.16,SW,219,0.0,0.0,72,0.00,,,0.00,oem by Ross Wheeler,2013-06-23 03:45:00,
2013-06-22 23:55:00,69.1,60.0,30.16,SW,219,0.0,0.0,72,0.00,,,0.00,oem by Ross Wheeler,2013-06-23 03:55:00,